Time;durP1;ratioP1;P1;durP2;ratioP2;P2;SDS_P1;SDS_P2;PMS_P1;PMS_P2;Temp;Humidity;BMP_temperature;BMP_pressure;BME280_temperature;BME280_humidity;BME280_pressure;Samples;Min_cycle;Max_cycle;Signal;HPM_P1;HPM_P2
2022/01/20 00:03:15;;;;;;;11.93;5.65;;;;;;;;;;5077015;28;20112;-74
2022/01/20 00:27:34;;;;;;;10.43;5.18;;;;;;;;;;5071381;28;20137;-74
2022/01/20 00:38:23;;;;;;;12.32;5.20;;;;;;;;;;5091358;28;20051;-74
2022/01/20 00:40:49;;;;;;;10.45;5.90;;;;;;;;;;5076927;28;20036;-74
2022/01/20 00:43:15;;;;;;;11.50;6.00;;;;;;;;;;5071110;28;20471;-74
2022/01/20 00:45:41;;;;;;;14.27;5.75;;;;;;;;;;5080328;28;20035;-74
2022/01/20 00:48:07;;;;;;;10.80;5.28;;;;;;;;;;5091353;28;20387;-73
2022/01/20 00:50:35;;;;;;;9.35;4.88;;;;;;;;;;5085734;28;20066;-73
2022/01/20 00:53:01;;;;;;;10.65;3.80;;;;;;;;;;5071027;28;20031;-74
2022/01/20 00:55:27;;;;;;;8.30;3.60;;;;;;;;;;5074884;28;20082;-74
2022/01/20 00:57:53;;;;;;;8.27;3.17;;;;;;;;;;5090914;28;20409;-74
2022/01/20 01:00:19;;;;;;;8.00;3.65;;;;;;;;;;5088775;28;20048;-74
2022/01/20 01:02:45;;;;;;;10.07;4.80;;;;;;;;;;5090794;28;20024;-74
2022/01/20 01:05:12;;;;;;;8.05;4.00;;;;;;;;;;5077141;28;20033;-74
2022/01/20 01:10:12;;;;;;;13.23;6.22;;;;;;;;;;5078498;28;20054;-74
2022/01/20 01:15:24;;;;;;;10.38;5.43;;;;;;;;;;5078616;28;20043;-74
2022/01/20 01:23:20;;;;;;;11.48;6.38;;;;;;;;;;5070683;28;20082;-74
2022/01/20 01:25:46;;;;;;;13.65;5.35;;;;;;;;;;5070167;28;20115;-74
2022/01/20 01:28:13;;;;;;;13.05;6.28;;;;;;;;;;5087066;28;20036;-74
2022/01/20 01:33:07;;;;;;;9.43;4.10;;;;;;;;;;5090778;28;20541;-74
2022/01/20 01:35:34;;;;;;;8.30;3.88;;;;;;;;;;5090520;28;20478;-74
2022/01/20 01:40:33;;;;;;;9.95;4.10;;;;;;;;;;5076544;28;20076;-75
2022/01/20 01:43:02;;;;;;;13.40;4.00;;;;;;;;;;5083735;28;20459;-74
2022/01/20 01:45:33;;;;;;;12.48;4.78;;;;;;;;;;5074478;28;20032;-74
2022/01/20 01:48:00;;;;;;;12.20;5.40;;;;;;;;;;5081759;28;20024;-74
2022/01/20 01:50:26;;;;;;;11.73;5.72;;;;;;;;;;5090364;28;20036;-74
2022/01/20 01:52:53;;;;;;;15.43;5.93;;;;;;;;;;5089361;28;20415;-74
2022/01/20 01:55:19;;;;;;;16.80;6.60;;;;;;;;;;5089486;28;20068;-75
2022/01/20 01:57:45;;;;;;;14.32;5.68;;;;;;;;;;5084706;28;20044;-74
2022/01/20 02:00:12;;;;;;;13.00;5.65;;;;;;;;;;5069320;28;20151;-74
2022/01/20 02:02:39;;;;;;;15.13;5.78;;;;;;;;;;5075817;28;20028;-74
2022/01/20 02:05:06;;;;;;;17.80;8.50;;;;;;;;;;5071915;28;20058;-74
2022/01/20 02:20:51;;;;;;;13.95;7.28;;;;;;;;;;5077935;28;20040;-74
2022/01/20 02:23:18;;;;;;;17.88;7.53;;;;;;;;;;5088702;28;20031;-74
2022/01/20 02:25:45;;;;;;;13.73;7.97;;;;;;;;;;5089523;28;20059;-74
2022/01/20 02:28:11;;;;;;;15.50;8.07;;;;;;;;;;5074189;28;20680;-76
2022/01/20 02:30:38;;;;;;;17.38;10.10;;;;;;;;;;5069401;28;20040;-73
2022/01/20 02:33:09;;;;;;;17.25;9.57;;;;;;;;;;5084754;28;20043;-76
2022/01/20 02:35:37;;;;;;;15.15;7.60;;;;;;;;;;5084381;28;20044;-75
2022/01/20 02:38:13;;;;;;;17.77;7.78;;;;;;;;;;5081709;28;20493;-76
2022/01/20 02:45:53;;;;;;;15.90;7.95;;;;;;;;;;5086490;28;20151;-74
2022/01/20 02:48:19;;;;;;;17.25;7.28;;;;;;;;;;5088805;28;20891;-74
2022/01/20 02:50:45;;;;;;;14.63;7.40;;;;;;;;;;5089572;28;20115;-74
2022/01/20 02:53:11;;;;;;;13.48;7.38;;;;;;;;;;5079182;28;20044;-74
2022/01/20 02:55:37;;;;;;;14.00;7.30;;;;;;;;;;5077949;28;20158;-74
2022/01/20 02:58:03;;;;;;;13.23;7.70;;;;;;;;;;5084518;28;20032;-74
2022/01/20 03:00:29;;;;;;;14.68;7.90;;;;;;;;;;5089076;28;20055;-74
2022/01/20 03:02:56;;;;;;;15.45;7.82;;;;;;;;;;5078899;28;20028;-74
2022/01/20 03:05:22;;;;;;;16.52;8.25;;;;;;;;;;5086356;28;20043;-73
2022/01/20 03:07:48;;;;;;;13.88;6.63;;;;;;;;;;5069508;28;20028;-73
2022/01/20 03:10:17;;;;;;;13.60;6.75;;;;;;;;;;5085132;28;20039;-74
2022/01/20 03:12:43;;;;;;;18.10;8.25;;;;;;;;;;5080433;28;20546;-74
2022/01/20 03:15:09;;;;;;;14.10;7.90;;;;;;;;;;5075380;28;20494;-74
2022/01/20 03:17:35;;;;;;;15.25;7.53;;;;;;;;;;5070644;28;20123;-74
2022/01/20 03:20:01;;;;;;;18.45;7.95;;;;;;;;;;5084793;28;20455;-74
2022/01/20 03:22:27;;;;;;;18.25;9.73;;;;;;;;;;5070002;28;20029;-74
2022/01/20 03:24:55;;;;;;;24.98;10.20;;;;;;;;;;5085856;28;20077;-74
2022/01/20 03:27:21;;;;;;;25.13;10.95;;;;;;;;;;5091716;28;20024;-74
2022/01/20 03:29:47;;;;;;;22.33;11.35;;;;;;;;;;5083534;28;20063;-74
2022/01/20 03:32:13;;;;;;;21.27;10.15;;;;;;;;;;5092791;28;20032;-74
2022/01/20 03:34:39;;;;;;;21.70;11.35;;;;;;;;;;5081687;28;20043;-74
2022/01/20 03:37:05;;;;;;;25.58;11.50;;;;;;;;;;5092476;28;20031;-74
2022/01/20 03:39:32;;;;;;;18.63;10.23;;;;;;;;;;5085087;28;20021;-74
2022/01/20 03:41:58;;;;;;;15.00;8.77;;;;;;;;;;5072594;28;20658;-74
2022/01/20 03:44:24;;;;;;;19.95;9.65;;;;;;;;;;5085904;28;20169;-74
2022/01/20 03:46:51;;;;;;;21.48;11.38;;;;;;;;;;5092389;28;20028;-74
2022/01/20 03:52:02;;;;;;;24.10;10.68;;;;;;;;;;5078670;28;20178;-74
2022/01/20 03:54:28;;;;;;;23.05;10.65;;;;;;;;;;5091879;28;20032;-74
2022/01/20 03:56:54;;;;;;;22.92;10.13;;;;;;;;;;5092007;28;20073;-74
2022/01/20 03:59:20;;;;;;;20.23;9.95;;;;;;;;;;5078972;28;20049;-74
2022/01/20 04:01:46;;;;;;;20.45;10.30;;;;;;;;;;5085374;28;20479;-74
2022/01/20 04:04:12;;;;;;;23.50;9.60;;;;;;;;;;5089910;28;20035;-73
2022/01/20 04:06:38;;;;;;;22.42;11.05;;;;;;;;;;5075469;28;20127;-74
2022/01/20 04:09:04;;;;;;;21.73;9.60;;;;;;;;;;5071961;28;20159;-74
2022/01/20 04:11:31;;;;;;;18.95;9.32;;;;;;;;;;5079532;28;20032;-74
2022/01/20 04:13:57;;;;;;;26.08;11.48;;;;;;;;;;5092008;28;20024;-74
2022/01/20 04:16:36;;;;;;;20.13;10.32;;;;;;;;;;5091939;28;20040;-74
2022/01/20 04:19:07;;;;;;;23.23;10.18;;;;;;;;;;5091620;28;20036;-73
2022/01/20 04:21:33;;;;;;;18.67;9.68;;;;;;;;;;5092276;28;20032;-74
2022/01/20 04:24:01;;;;;;;17.17;9.45;;;;;;;;;;5091428;28;20378;-74
2022/01/20 04:26:28;;;;;;;23.67;11.73;;;;;;;;;;5091822;28;20050;-74
2022/01/20 04:28:56;;;;;;;25.40;12.75;;;;;;;;;;5089952;28;20115;-74
2022/01/20 04:31:22;;;;;;;26.90;12.38;;;;;;;;;;5092629;28;20040;-74
2022/01/20 04:33:48;;;;;;;20.77;11.05;;;;;;;;;;5088061;28;20078;-74
2022/01/20 04:36:14;;;;;;;23.73;12.50;;;;;;;;;;5073973;28;20056;-74
2022/01/20 04:38:40;;;;;;;20.90;10.73;;;;;;;;;;5081163;28;20110;-74
2022/01/20 04:41:06;;;;;;;22.98;10.90;;;;;;;;;;5092056;28;20111;-74
2022/01/20 04:43:32;;;;;;;20.73;10.02;;;;;;;;;;5082681;28;20031;-74
2022/01/20 04:46:08;;;;;;;19.00;10.13;;;;;;;;;;5084622;28;20036;-74
2022/01/20 04:59:26;;;;;;;22.10;11.30;;;;;;;;;;5090507;28;20051;-74
2022/01/20 05:01:52;;;;;;;25.70;13.80;;;;;;;;;;5091592;28;20089;-74
2022/01/20 05:04:19;;;;;;;27.38;13.70;;;;;;;;;;5089119;28;20546;-74
2022/01/20 05:06:46;;;;;;;28.13;14.10;;;;;;;;;;5071078;28;20460;-74
2022/01/20 05:09:18;;;;;;;26.13;14.30;;;;;;;;;;5080376;28;20028;-74
2022/01/20 05:11:48;;;;;;;22.08;12.25;;;;;;;;;;5091068;28;20436;-74
2022/01/20 05:14:14;;;;;;;23.08;12.75;;;;;;;;;;5089627;28;20519;-74
2022/01/20 05:16:40;;;;;;;22.30;10.80;;;;;;;;;;5090737;28;20445;-74
2022/01/20 05:19:07;;;;;;;20.58;10.10;;;;;;;;;;5090476;28;20028;-74
2022/01/20 05:21:33;;;;;;;23.20;10.73;;;;;;;;;;5075270;28;20032;-74
2022/01/20 05:23:59;;;;;;;29.83;13.27;;;;;;;;;;5082837;28;20024;-75
2022/01/20 05:26:25;;;;;;;19.08;10.18;;;;;;;;;;5085259;28;20032;-74
2022/01/20 05:28:50;;;;;;;19.38;10.23;;;;;;;;;;5090562;28;20028;-74
2022/01/20 05:31:17;;;;;;;19.90;10.32;;;;;;;;;;5090465;28;20464;-74
2022/01/20 05:33:43;;;;;;;18.70;10.43;;;;;;;;;;5090352;28;20050;-74
2022/01/20 05:36:09;;;;;;;20.42;10.02;;;;;;;;;;5090813;28;20036;-74
2022/01/20 05:38:35;;;;;;;19.98;10.15;;;;;;;;;;5090251;28;20032;-74
2022/01/20 05:41:01;;;;;;;18.40;10.00;;;;;;;;;;5090252;28;20032;-74
2022/01/20 05:43:27;;;;;;;19.35;10.70;;;;;;;;;;5090300;28;20038;-74
2022/01/20 05:45:53;;;;;;;17.02;10.45;;;;;;;;;;5089101;28;20067;-74
2022/01/20 05:48:31;;;;;;;21.58;11.43;;;;;;;;;;5090020;28;20032;-74
2022/01/20 05:50:57;;;;;;;21.48;12.45;;;;;;;;;;5088324;28;20050;-74
2022/01/20 05:53:23;;;;;;;24.55;11.45;;;;;;;;;;5089235;28;20040;-74
2022/01/20 05:55:49;;;;;;;20.10;11.05;;;;;;;;;;5090082;28;20040;-74
2022/01/20 05:58:15;;;;;;;19.65;12.38;;;;;;;;;;5088770;28;20035;-74
2022/01/20 06:00:42;;;;;;;21.00;13.32;;;;;;;;;;5089953;28;20471;-74
2022/01/20 06:05:53;;;;;;;22.88;11.85;;;;;;;;;;5082272;28;20069;-74
2022/01/20 06:08:20;;;;;;;19.02;11.55;;;;;;;;;;5089595;28;20032;-74
2022/01/20 06:10:46;;;;;;;22.95;12.20;;;;;;;;;;5089380;28;20036;-74
2022/01/20 06:13:12;;;;;;;21.85;12.25;;;;;;;;;;5089288;28;20111;-74
2022/01/20 06:15:38;;;;;;;21.35;12.95;;;;;;;;;;5088075;28;20072;-74
2022/01/20 06:18:04;;;;;;;22.98;13.05;;;;;;;;;;5087577;28;20178;-74
2022/01/20 06:20:31;;;;;;;26.90;14.02;;;;;;;;;;5084361;28;20185;-74
2022/01/20 06:22:57;;;;;;;31.77;18.08;;;;;;;;;;5089080;28;20417;-74
2022/01/20 06:25:23;;;;;;;47.22;23.13;;;;;;;;;;5089256;28;20148;-74
2022/01/20 06:27:49;;;;;;;48.63;26.30;;;;;;;;;;5085169;28;20427;-74
2022/01/20 06:30:18;;;;;;;51.83;27.17;;;;;;;;;;5087312;28;20039;-75
2022/01/20 06:32:44;;;;;;;48.67;25.30;;;;;;;;;;5087321;28;20386;-76
2022/01/20 06:35:11;;;;;;;54.15;28.35;;;;;;;;;;5088905;28;20049;-76
2022/01/20 06:37:37;;;;;;;45.80;24.95;;;;;;;;;;5087785;28;20024;-75
2022/01/20 06:40:04;;;;;;;51.58;25.70;;;;;;;;;;5088655;28;20043;-74
2022/01/20 06:42:30;;;;;;;49.67;24.83;;;;;;;;;;5082919;28;20028;-74
2022/01/20 06:44:56;;;;;;;44.47;23.70;;;;;;;;;;5082317;28;20069;-74
2022/01/20 06:47:22;;;;;;;44.58;24.30;;;;;;;;;;5082294;28;20051;-74
2022/01/20 06:49:48;;;;;;;38.63;21.13;;;;;;;;;;5079588;28;20757;-74
2022/01/20 06:52:14;;;;;;;39.58;22.40;;;;;;;;;;5083984;28;20051;-74
2022/01/20 06:54:40;;;;;;;39.05;22.17;;;;;;;;;;5088727;28;20533;-74
2022/01/20 06:57:06;;;;;;;35.35;20.83;;;;;;;;;;5090239;28;20122;-74
2022/01/20 06:59:32;;;;;;;36.65;22.10;;;;;;;;;;5091143;28;20075;-74
2022/01/20 07:01:58;;;;;;;34.35;19.25;;;;;;;;;;5084852;28;20773;-74
2022/01/20 07:04:28;;;;;;;27.88;15.23;;;;;;;;;;5091046;28;20028;-74
2022/01/20 07:06:54;;;;;;;28.42;15.80;;;;;;;;;;5087568;28;20053;-74
2022/01/20 07:09:20;;;;;;;24.73;14.38;;;;;;;;;;5090697;28;20072;-74
2022/01/20 07:11:46;;;;;;;27.77;16.13;;;;;;;;;;5092949;28;20032;-74
2022/01/20 07:14:12;;;;;;;31.77;15.13;;;;;;;;;;5092116;28;20081;-74
2022/01/20 07:16:38;;;;;;;27.20;14.82;;;;;;;;;;5093384;28;20106;-74
2022/01/20 07:19:04;;;;;;;38.33;19.80;;;;;;;;;;5091761;28;20042;-74
2022/01/20 07:21:31;;;;;;;43.45;22.92;;;;;;;;;;5079314;28;20757;-74
2022/01/20 07:23:57;;;;;;;48.00;23.25;;;;;;;;;;5088219;28;20034;-74
2022/01/20 07:26:23;;;;;;;67.43;32.78;;;;;;;;;;5092931;28;20047;-74
2022/01/20 07:28:49;;;;;;;55.13;26.88;;;;;;;;;;5092181;28;20032;-74
2022/01/20 07:31:19;;;;;;;33.95;17.40;;;;;;;;;;5092002;28;20078;-74
2022/01/20 07:33:45;;;;;;;31.45;19.70;;;;;;;;;;5092064;28;20028;-74
2022/01/20 07:36:11;;;;;;;29.00;17.27;;;;;;;;;;5092343;28;20512;-74
2022/01/20 07:38:37;;;;;;;23.42;12.65;;;;;;;;;;5092445;28;20024;-74
2022/01/20 07:41:03;;;;;;;24.48;14.98;;;;;;;;;;5089417;28;20028;-74
2022/01/20 07:43:29;;;;;;;17.27;9.63;;;;;;;;;;5092491;28;20032;-74
2022/01/20 07:45:55;;;;;;;12.10;7.55;;;;;;;;;;5091595;28;20032;-74
2022/01/20 07:48:21;;;;;;;12.32;6.55;;;;;;;;;;5092373;28;20782;-74
2022/01/20 07:50:47;;;;;;;11.95;6.60;;;;;;;;;;5091580;28;20032;-74
2022/01/20 07:53:13;;;;;;;13.02;7.63;;;;;;;;;;5092392;28;20028;-74
2022/01/20 07:55:39;;;;;;;15.80;10.77;;;;;;;;;;5088610;28;20104;-74
2022/01/20 07:58:06;;;;;;;31.23;22.30;;;;;;;;;;5081015;28;20037;-74
2022/01/20 08:00:32;;;;;;;20.05;13.95;;;;;;;;;;5091162;28;20048;-74
2022/01/20 08:02:58;;;;;;;16.08;8.95;;;;;;;;;;5092249;28;20028;-74
2022/01/20 08:05:24;;;;;;;15.68;7.18;;;;;;;;;;5084741;28;20490;-74
2022/01/20 08:07:50;;;;;;;13.35;6.13;;;;;;;;;;5092062;28;20036;-74
2022/01/20 08:10:16;;;;;;;13.32;6.53;;;;;;;;;;5090816;28;20521;-74
2022/01/20 08:12:43;;;;;;;15.80;8.10;;;;;;;;;;5091227;28;20150;-74
2022/01/20 08:15:12;;;;;;;12.35;6.60;;;;;;;;;;5085375;28;20037;-74
2022/01/20 08:17:38;;;;;;;13.50;6.70;;;;;;;;;;5080627;28;20098;-74
2022/01/20 08:20:04;;;;;;;11.20;6.68;;;;;;;;;;5084099;28;20036;-74
2022/01/20 08:22:34;;;;;;;12.73;7.40;;;;;;;;;;5085444;28;20028;-74
2022/01/20 08:25:00;;;;;;;17.33;8.70;;;;;;;;;;5091688;28;20058;-74
2022/01/20 08:27:26;;;;;;;25.73;9.80;;;;;;;;;;5088214;28;20063;-74
2022/01/20 08:29:52;;;;;;;30.85;12.63;;;;;;;;;;5091266;28;20036;-74
2022/01/20 08:32:19;;;;;;;32.03;11.80;;;;;;;;;;5090581;28;20032;-74
2022/01/20 08:34:45;;;;;;;37.88;12.23;;;;;;;;;;5091223;28;20032;-75
2022/01/20 08:37:11;;;;;;;44.85;15.38;;;;;;;;;;5090648;28;20032;-75
2022/01/20 08:42:05;;;;;;;49.42;16.50;;;;;;;;;;5085017;28;20032;-74
2022/01/20 08:44:31;;;;;;;45.10;15.93;;;;;;;;;;5088538;28;20121;-74
2022/01/20 08:46:58;;;;;;;38.53;14.73;;;;;;;;;;5090232;28;20032;-74
2022/01/20 08:49:24;;;;;;;22.33;10.40;;;;;;;;;;5070592;28;20114;-74
2022/01/20 08:51:51;;;;;;;33.90;11.90;;;;;;;;;;5075218;28;20039;-74
2022/01/20 08:54:17;;;;;;;29.17;12.52;;;;;;;;;;5080536;28;20539;-74
2022/01/20 08:56:43;;;;;;;45.10;18.05;;;;;;;;;;5090186;28;20062;-74
2022/01/20 08:59:10;;;;;;;43.75;19.08;;;;;;;;;;5085724;28;20588;-74
2022/01/20 09:01:38;;;;;;;39.67;19.50;;;;;;;;;;5090527;28;20127;-74
2022/01/20 09:04:05;;;;;;;38.30;18.30;;;;;;;;;;5090374;28;20063;-74
2022/01/20 09:06:31;;;;;;;28.85;14.35;;;;;;;;;;5090217;28;20028;-74
2022/01/20 09:08:57;;;;;;;22.58;11.25;;;;;;;;;;5090978;28;20409;-74
2022/01/20 09:11:25;;;;;;;19.92;10.73;;;;;;;;;;5084929;28;20043;-74
2022/01/20 09:16:37;;;;;;;23.88;12.02;;;;;;;;;;5078363;28;20051;-75
2022/01/20 09:19:04;;;;;;;19.45;9.77;;;;;;;;;;5089816;28;20903;-74
2022/01/20 09:21:30;;;;;;;15.73;6.80;;;;;;;;;;5085274;28;20032;-74
2022/01/20 09:23:56;;;;;;;17.95;6.75;;;;;;;;;;5089571;28;20043;-74
2022/01/20 09:26:23;;;;;;;16.45;7.68;;;;;;;;;;5084429;28;20371;-74
2022/01/20 09:28:49;;;;;;;12.98;6.28;;;;;;;;;;5090086;28;20024;-75
2022/01/20 09:31:15;;;;;;;14.00;6.63;;;;;;;;;;5088885;28;20596;-74
2022/01/20 09:33:41;;;;;;;15.68;8.30;;;;;;;;;;5090037;28;20433;-74
2022/01/20 09:36:09;;;;;;;21.83;11.90;;;;;;;;;;5084762;28;20037;-74
2022/01/20 09:38:35;;;;;;;24.02;12.95;;;;;;;;;;5086182;28;20034;-74
2022/01/20 09:41:02;;;;;;;18.63;10.25;;;;;;;;;;5076435;28;20033;-74
2022/01/20 09:43:28;;;;;;;14.32;7.80;;;;;;;;;;5073844;28;20069;-74
2022/01/20 09:45:57;;;;;;;15.27;7.53;;;;;;;;;;5089984;28;20047;-74
2022/01/20 09:48:24;;;;;;;17.88;8.13;;;;;;;;;;5084264;28;20040;-74
2022/01/20 09:50:50;;;;;;;17.95;8.85;;;;;;;;;;5090204;28;20074;-74
2022/01/20 09:53:16;;;;;;;13.88;5.78;;;;;;;;;;5087693;28;20683;-74
2022/01/20 09:55:43;;;;;;;10.55;3.85;;;;;;;;;;5089217;28;20102;-74
2022/01/20 09:58:09;;;;;;;9.77;4.28;;;;;;;;;;5088124;28;20032;-74
2022/01/20 10:00:36;;;;;;;17.45;6.20;;;;;;;;;;5089570;28;20113;-74
2022/01/20 10:03:06;;;;;;;19.90;7.68;;;;;;;;;;5088877;28;20028;-74
2022/01/20 10:05:32;;;;;;;19.77;9.68;;;;;;;;;;5075875;28;20443;-74
2022/01/20 10:08:04;;;;;;;19.75;10.35;;;;;;;;;;5077657;28;20056;-74
2022/01/20 10:10:30;;;;;;;;;;;;;;;;;;5073666;28;20377;-74
2022/01/20 10:13:04;;;;;;;9.82;4.10;;;;;;;;;;5085356;28;20006;-74
2022/01/20 10:15:30;;;;;;;10.45;3.30;;;;;;;;;;5075902;28;20474;-74
2022/01/20 10:18:09;;;;;;;9.20;4.22;;;;;;;;;;5088704;28;20054;-74
2022/01/20 10:20:35;;;;;;;12.80;4.93;;;;;;;;;;5075273;28;20517;-74
2022/01/20 10:23:01;;;;;;;10.05;3.83;;;;;;;;;;5089345;28;20020;-74
2022/01/20 10:25:33;;;;;;;14.57;4.53;;;;;;;;;;5087373;28;20039;-74
2022/01/20 10:27:59;;;;;;;8.48;2.67;;;;;;;;;;5088276;28;20115;-74
2022/01/20 10:30:26;;;;;;;7.75;4.35;;;;;;;;;;5081296;28;20112;-74
2022/01/20 10:32:54;;;;;;;12.55;3.65;;;;;;;;;;5087919;28;20057;-74
2022/01/20 10:35:33;;;;;;;12.63;3.83;;;;;;;;;;5070476;28;20044;-74
2022/01/20 10:38:01;;;;;;;15.82;7.10;;;;;;;;;;5081956;28;20762;-74
2022/01/20 10:40:27;;;;;;;16.55;5.70;;;;;;;;;;5085236;28;20028;-75
2022/01/20 10:42:54;;;;;;;12.65;6.43;;;;;;;;;;5088855;28;20059;-74
2022/01/20 10:45:24;;;;;;;39.25;4.93;;;;;;;;;;5088554;28;20039;-74
2022/01/20 10:47:51;;;;;;;35.00;4.13;;;;;;;;;;5088832;28;20054;-74
2022/01/20 10:50:23;;;;;;;11.68;2.50;;;;;;;;;;5088380;28;20032;-74
2022/01/20 10:52:51;;;;;;;20.10;9.82;;;;;;;;;;5071588;28;20032;-75
2022/01/20 10:55:34;;;;;;;15.95;8.02;;;;;;;;;;5076673;28;20118;-74
2022/01/20 10:58:17;;;;;;;33.42;9.27;;;;;;;;;;5088061;28;20024;-74
2022/01/20 11:00:46;;;;;;;29.13;9.43;;;;;;;;;;5085229;28;20083;-74
2022/01/20 11:03:13;;;;;;;13.63;4.55;;;;;;;;;;5085967;28;20039;-74
2022/01/20 11:05:40;;;;;;;7.53;2.47;;;;;;;;;;5081972;28;20420;-74
2022/01/20 11:08:08;;;;;;;6.32;2.00;;;;;;;;;;5087979;28;20471;-74
2022/01/20 11:10:34;;;;;;;5.30;1.70;;;;;;;;;;5087882;28;20040;-74
2022/01/20 11:13:00;;;;;;;6.72;1.95;;;;;;;;;;5089129;28;20085;-74
2022/01/20 11:15:29;;;;;;;5.43;1.83;;;;;;;;;;5087899;28;20043;-74
2022/01/20 11:17:56;;;;;;;3.50;1.17;;;;;;;;;;5088297;28;20105;-74
2022/01/20 11:20:25;;;;;;;5.78;1.65;;;;;;;;;;5086310;28;20417;-73
2022/01/20 11:22:57;;;;;;;6.15;1.50;;;;;;;;;;5072594;28;20032;-74
2022/01/20 11:25:25;;;;;;;6.72;2.00;;;;;;;;;;5079857;28;20119;-74
2022/01/20 11:27:52;;;;;;;6.20;2.28;;;;;;;;;;5086571;28;20048;-74
2022/01/20 11:30:19;;;;;;;4.50;1.88;;;;;;;;;;5077922;28;20135;-74
2022/01/20 11:32:57;;;;;;;10.05;2.83;;;;;;;;;;5088418;28;20936;-74
2022/01/20 11:35:23;;;;;;;11.50;3.20;;;;;;;;;;5080189;28;20774;-74
2022/01/20 11:37:56;;;;;;;10.55;3.90;;;;;;;;;;5082610;28;20048;-74
2022/01/20 11:40:23;;;;;;;12.27;3.80;;;;;;;;;;5081849;28;20443;-74
2022/01/20 11:43:16;;;;;;;9.70;4.47;;;;;;;;;;5088036;28;20098;-74
2022/01/20 11:45:46;;;;;;;13.50;4.80;;;;;;;;;;5087005;28;20360;-74
2022/01/20 11:48:20;;;;;;;9.05;4.00;;;;;;;;;;5083975;28;20036;-74
2022/01/20 11:50:47;;;;;;;7.97;3.67;;;;;;;;;;5088099;28;20094;-74
2022/01/20 11:53:15;;;;;;;12.77;4.43;;;;;;;;;;5091777;28;20063;-74
2022/01/20 11:55:55;;;;;;;16.08;4.53;;;;;;;;;;5076154;28;20046;-74
2022/01/20 11:58:23;;;;;;;11.55;3.85;;;;;;;;;;5088317;28;20080;-74
2022/01/20 12:00:59;;;;;;;10.55;4.18;;;;;;;;;;5091779;28;20038;-74
2022/01/20 12:03:25;;;;;;;10.15;4.07;;;;;;;;;;5087765;28;20028;-74
2022/01/20 12:06:23;;;;;;;8.60;3.38;;;;;;;;;;5087559;28;20482;-74
2022/01/20 12:09:07;;;;;;;11.48;4.75;;;;;;;;;;5085042;28;20048;-74
2022/01/20 12:11:38;;;;;;;16.98;7.40;;;;;;;;;;5076911;28;20036;-74
2022/01/20 12:14:06;;;;;;;17.55;8.32;;;;;;;;;;5091348;28;20028;-74
2022/01/20 12:16:32;;;;;;;27.38;11.27;;;;;;;;;;5075000;28;20035;-74
2022/01/20 12:18:58;;;;;;;18.88;9.05;;;;;;;;;;5089196;28;20035;-74
2022/01/20 12:21:25;;;;;;;16.40;7.20;;;;;;;;;;5091837;28;20031;-74
2022/01/20 12:23:52;;;;;;;11.82;4.68;;;;;;;;;;5090837;28;20530;-74
2022/01/20 12:26:18;;;;;;;13.43;5.47;;;;;;;;;;5084080;28;20058;-74
2022/01/20 12:28:45;;;;;;;9.63;4.68;;;;;;;;;;5090139;28;20710;-74
2022/01/20 12:31:14;;;;;;;9.68;4.05;;;;;;;;;;5091372;28;20039;-74
2022/01/20 12:33:47;;;;;;;9.70;4.05;;;;;;;;;;5088131;28;20073;-74
2022/01/20 12:36:14;;;;;;;10.95;4.22;;;;;;;;;;5091467;28;20028;-74
2022/01/20 12:38:40;;;;;;;8.20;3.25;;;;;;;;;;5088573;28;20043;-73
2022/01/20 12:41:07;;;;;;;8.57;3.47;;;;;;;;;;5091406;28;20050;-73
2022/01/20 12:43:46;;;;;;;7.60;2.95;;;;;;;;;;5084050;28;20028;-74
2022/01/20 12:46:14;;;;;;;7.38;3.05;;;;;;;;;;5091435;28;20152;-73
2022/01/20 12:49:00;;;;;;;6.68;2.55;;;;;;;;;;5089842;28;20036;-74
2022/01/20 12:51:46;;;;;;;6.78;3.42;;;;;;;;;;5083499;28;20035;-73
2022/01/20 12:54:16;;;;;;;7.25;2.42;;;;;;;;;;5080182;28;20057;-74
2022/01/20 12:56:44;;;;;;;6.85;2.40;;;;;;;;;;5091003;28;20031;-74
2022/01/20 12:59:11;;;;;;;8.07;3.30;;;;;;;;;;5086053;28;20123;-74
2022/01/20 13:01:46;;;;;;;10.43;2.50;;;;;;;;;;5088379;28;20034;-74
2022/01/20 13:04:14;;;;;;;5.45;2.47;;;;;;;;;;5074454;28;20038;-74
2022/01/20 13:06:53;;;;;;;9.32;3.08;;;;;;;;;;5071165;28;20036;-74
2022/01/20 13:09:21;;;;;;;7.35;3.00;;;;;;;;;;5087643;28;20138;-74
2022/01/20 13:11:54;;;;;;;8.32;2.88;;;;;;;;;;5089523;28;20467;-73
2022/01/20 13:14:22;;;;;;;8.70;2.90;;;;;;;;;;5090068;28;20374;-74
2022/01/20 13:16:51;;;;;;;10.98;4.32;;;;;;;;;;5089468;28;20044;-73
2022/01/20 13:19:17;;;;;;;6.88;3.15;;;;;;;;;;5089939;28;20028;-74
2022/01/20 13:21:52;;;;;;;8.43;3.70;;;;;;;;;;5078934;28;20029;-73
2022/01/20 13:24:25;;;;;;;7.25;2.72;;;;;;;;;;5081610;28;20028;-74
2022/01/20 13:26:53;;;;;;;10.23;3.05;;;;;;;;;;5085252;28;20103;-74
2022/01/20 13:29:19;;;;;;;10.30;3.63;;;;;;;;;;5089909;28;20024;-74
2022/01/20 13:31:45;;;;;;;10.15;3.35;;;;;;;;;;5089558;28;20072;-74
2022/01/20 13:34:17;;;;;;;8.55;3.55;;;;;;;;;;5083625;28;20043;-74
2022/01/20 13:36:45;;;;;;;9.13;3.28;;;;;;;;;;5082963;28;20028;-74
2022/01/20 13:39:12;;;;;;;8.43;3.10;;;;;;;;;;5081619;28;20024;-73
2022/01/20 13:41:38;;;;;;;9.43;3.17;;;;;;;;;;5078675;28;20482;-74
2022/01/20 13:47:02;;;;;;;7.68;3.78;;;;;;;;;;5085035;28;20066;-74
2022/01/20 13:49:28;;;;;;;11.10;5.25;;;;;;;;;;5080334;28;20444;-73
2022/01/20 13:52:00;;;;;;;16.77;8.40;;;;;;;;;;5089347;28;20487;-74
2022/01/20 13:54:46;;;;;;;20.90;6.57;;;;;;;;;;5082187;28;20036;-73
2022/01/20 13:57:12;;;;;;;19.98;6.50;;;;;;;;;;5084967;28;20513;-73
2022/01/20 13:59:48;;;;;;;17.48;5.68;;;;;;;;;;5089431;28;20075;-73
2022/01/20 14:02:14;;;;;;;22.05;6.88;;;;;;;;;;5088607;28;20023;-74
2022/01/20 14:04:40;;;;;;;18.90;6.90;;;;;;;;;;5089610;28;20470;-74
2022/01/20 14:07:06;;;;;;;17.13;5.35;;;;;;;;;;5086957;28;20028;-74
2022/01/20 14:09:32;;;;;;;16.08;5.30;;;;;;;;;;5077142;28;20081;-73
2022/01/20 14:11:58;;;;;;;11.50;6.30;;;;;;;;;;5082297;28;20421;-73
2022/01/20 14:14:24;;;;;;;12.75;5.43;;;;;;;;;;5089190;28;20063;-74
2022/01/20 14:16:50;;;;;;;14.10;5.53;;;;;;;;;;5078155;28;20539;-74
2022/01/20 14:19:22;;;;;;;14.32;5.03;;;;;;;;;;5082512;28;20032;-73
2022/01/20 14:21:48;;;;;;;12.95;5.13;;;;;;;;;;5085938;28;20908;-73
2022/01/20 14:24:14;;;;;;;12.65;5.60;;;;;;;;;;5088769;28;20474;-73
2022/01/20 14:26:44;;;;;;;12.63;5.97;;;;;;;;;;5077365;28;20383;-74
2022/01/20 14:29:10;;;;;;;12.20;5.50;;;;;;;;;;5080865;28;20032;-73
2022/01/20 14:31:37;;;;;;;10.90;4.50;;;;;;;;;;5083383;28;20068;-73
2022/01/20 14:34:03;;;;;;;10.63;4.68;;;;;;;;;;5084569;28;20123;-73
2022/01/20 14:36:29;;;;;;;18.50;4.78;;;;;;;;;;5089343;28;20040;-73
2022/01/20 14:38:55;;;;;;;16.35;7.15;;;;;;;;;;5081335;28;20111;-73
2022/01/20 14:41:21;;;;;;;17.55;6.45;;;;;;;;;;5084231;28;20107;-73
2022/01/20 14:43:47;;;;;;;17.75;6.55;;;;;;;;;;5084573;28;20387;-74
2022/01/20 14:46:13;;;;;;;19.80;7.22;;;;;;;;;;5088267;28;20040;-73
2022/01/20 14:48:39;;;;;;;18.08;5.35;;;;;;;;;;5084271;28;20062;-74
2022/01/20 14:51:08;;;;;;;17.15;6.18;;;;;;;;;;5089747;28;20464;-74
2022/01/20 14:53:34;;;;;;;16.13;7.75;;;;;;;;;;5088507;28;20524;-74
2022/01/20 14:56:00;;;;;;;13.93;6.15;;;;;;;;;;5087581;28;20028;-74
2022/01/20 14:58:27;;;;;;;18.02;6.38;;;;;;;;;;5087842;28;20059;-74
2022/01/20 15:00:53;;;;;;;13.25;7.10;;;;;;;;;;5089465;28;20680;-74
2022/01/20 15:03:19;;;;;;;21.67;10.88;;;;;;;;;;5088789;28;20586;-74
2022/01/20 15:05:45;;;;;;;26.15;10.98;;;;;;;;;;5086362;28;20034;-74
2022/01/20 15:08:11;;;;;;;15.27;7.18;;;;;;;;;;5077050;28;20036;-73
2022/01/20 15:10:38;;;;;;;18.45;7.25;;;;;;;;;;5079509;28;20111;-73
2022/01/20 15:13:04;;;;;;;18.45;7.90;;;;;;;;;;5089501;28;20089;-74
2022/01/20 15:15:30;;;;;;;16.17;7.32;;;;;;;;;;5084758;28;20040;-74
2022/01/20 15:17:57;;;;;;;15.60;6.93;;;;;;;;;;5083585;28;20103;-74
2022/01/20 15:20:23;;;;;;;15.05;6.10;;;;;;;;;;5092445;28;20047;-74
2022/01/20 15:22:49;;;;;;;10.90;5.32;;;;;;;;;;5093034;28;20024;-73
2022/01/20 15:25:15;;;;;;;13.20;5.28;;;;;;;;;;5091841;28;20430;-73
2022/01/20 15:27:41;;;;;;;14.75;5.47;;;;;;;;;;5091735;28;20073;-74
2022/01/20 15:30:07;;;;;;;13.38;6.28;;;;;;;;;;5085266;28;20036;-74
2022/01/20 15:32:33;;;;;;;12.15;5.00;;;;;;;;;;5092451;28;20062;-74
2022/01/20 15:34:59;;;;;;;12.48;4.45;;;;;;;;;;5091577;28;20028;-74
2022/01/20 15:37:25;;;;;;;9.80;4.35;;;;;;;;;;5092485;28;20032;-74
2022/01/20 15:39:51;;;;;;;13.00;4.10;;;;;;;;;;5091654;28;20074;-74
2022/01/20 15:42:17;;;;;;;9.65;3.53;;;;;;;;;;5085705;28;20028;-74
2022/01/20 15:44:43;;;;;;;10.25;3.90;;;;;;;;;;5084797;28;20036;-73
2022/01/20 15:47:09;;;;;;;8.95;3.20;;;;;;;;;;5091405;28;20039;-74
2022/01/20 15:49:35;;;;;;;14.07;2.22;;;;;;;;;;5091806;28;20024;-74
2022/01/20 15:52:01;;;;;;;10.13;1.70;;;;;;;;;;5091537;28;20032;-74
2022/01/20 15:54:27;;;;;;;11.25;2.10;;;;;;;;;;5091906;28;20060;-74
2022/01/20 15:56:53;;;;;;;10.55;2.53;;;;;;;;;;5091361;28;20596;-73
2022/01/20 15:59:19;;;;;;;7.85;1.80;;;;;;;;;;5089510;28;20040;-74
2022/01/20 16:01:45;;;;;;;9.57;1.80;;;;;;;;;;5091267;28;20024;-74